createdAt,value
2022-10-21T00:01:35.446Z,18.90
2022-10-21T00:04:23.084Z,18.70
2022-10-21T00:07:05.844Z,18.70
2022-10-21T00:09:54.082Z,18.80
2022-10-21T00:12:35.688Z,18.90
2022-10-21T00:15:24.963Z,18.70
2022-10-21T00:18:06.348Z,18.60
2022-10-21T00:20:54.969Z,18.80
2022-10-21T00:23:38.096Z,18.60
2022-10-21T00:26:26.992Z,18.60
2022-10-21T00:29:15.033Z,18.60
2022-10-21T00:31:56.172Z,18.60
2022-10-21T00:34:43.971Z,18.50
2022-10-21T00:37:25.185Z,18.40
2022-10-21T00:40:14.962Z,18.30
2022-10-21T00:42:56.190Z,18.20
2022-10-21T00:45:43.992Z,18.10
2022-10-21T00:48:31.244Z,18.10
2022-10-21T00:51:20.032Z,18.10
2022-10-21T00:54:08.210Z,18.20
2022-10-21T00:59:54.983Z,18.00
2022-10-21T01:02:36.492Z,18.20
2022-10-21T01:05:25.059Z,18.40
2022-10-21T01:08:06.433Z,18.30
2022-10-21T01:10:53.985Z,18.10
2022-10-21T01:13:40.466Z,17.90
2022-10-21T01:16:32.051Z,17.70
2022-10-21T01:19:23.551Z,17.60
2022-10-21T01:22:13.006Z,17.90
2022-10-21T01:25:05.761Z,17.70
2022-10-21T01:27:58.020Z,17.50
2022-10-21T01:30:41.114Z,17.50
2022-10-21T01:33:52.091Z,17.60
2022-10-21T01:36:38.075Z,17.60
2022-10-21T01:39:32.007Z,17.70
2022-10-21T01:42:16.049Z,17.40
2022-10-21T01:45:08.024Z,17.30
2022-10-21T01:47:51.657Z,17.30
2022-10-21T01:50:41.011Z,17.30
2022-10-21T01:53:38.032Z,17.30
2022-10-21T01:56:26.076Z,17.40
2022-10-21T01:59:16.014Z,17.30
2022-10-21T02:01:58.457Z,17.30
2022-10-21T02:04:49.074Z,17.20
2022-10-21T02:07:30.460Z,17.20
2022-10-21T02:10:19.015Z,17.20
2022-10-21T02:13:01.742Z,17.10
2022-10-21T02:15:49.013Z,17.00
2022-10-21T02:18:31.453Z,16.90
2022-10-21T02:21:22.019Z,17.00
2022-10-21T02:24:07.197Z,16.90
2022-10-21T02:26:55.044Z,17.00
2022-10-21T02:29:37.574Z,17.30
2022-10-21T02:32:30.994Z,17.40
2022-10-21T02:35:25.031Z,17.20
2022-10-21T02:38:09.148Z,17.10
2022-10-21T02:40:59.038Z,17.00
2022-10-21T02:43:42.206Z,17.00
2022-10-21T02:46:30.109Z,16.90
2022-10-21T02:49:12.863Z,16.80
2022-10-21T02:52:00.029Z,16.90
2022-10-21T02:54:42.214Z,17.10
2022-10-21T02:57:30.011Z,17.20
2022-10-21T03:00:12.256Z,17.10
2022-10-21T03:03:00.024Z,16.90
2022-10-21T03:05:48.035Z,16.80
2022-10-21T03:08:29.394Z,16.60
2022-10-21T03:11:19.032Z,16.50
2022-10-21T03:14:00.498Z,16.40
2022-10-21T03:16:48.020Z,16.30
2022-10-21T03:19:29.421Z,16.30
2022-10-21T03:22:17.055Z,16.40
2022-10-21T03:24:58.455Z,16.30
2022-10-21T03:27:48.047Z,16.20
2022-10-21T03:30:29.369Z,16.20
2022-10-21T03:33:17.039Z,16.10
2022-10-21T03:36:05.034Z,16.10
2022-10-21T03:38:46.319Z,16.10
2022-10-21T03:41:34.060Z,16.10
2022-10-21T03:44:17.241Z,16.10
2022-10-21T03:47:05.055Z,16.30
2022-10-21T03:49:46.176Z,16.20
2022-10-21T03:52:34.066Z,16.40
2022-10-21T03:55:17.153Z,16.30
2022-10-21T03:58:05.069Z,16.30
2022-10-21T04:00:48.306Z,16.50
2022-10-21T04:03:36.037Z,16.40
2022-10-21T04:06:17.204Z,16.40
2022-10-21T04:09:05.100Z,16.40
2022-10-21T04:11:53.160Z,16.60
2022-10-21T04:14:34.522Z,16.90
2022-10-21T04:17:24.052Z,17.00
2022-10-21T04:20:05.975Z,16.80
2022-10-21T04:22:54.133Z,16.70
2022-10-21T04:25:35.502Z,16.60
2022-10-21T04:28:23.074Z,16.50
2022-10-21T04:31:04.764Z,16.50
2022-10-21T04:33:54.156Z,16.60
2022-10-21T04:36:42.069Z,16.70
2022-10-21T04:39:23.288Z,16.70
2022-10-21T04:42:11.163Z,16.70
2022-10-21T04:44:52.285Z,16.80
2022-10-21T04:47:40.273Z,16.90
2022-10-21T04:50:23.284Z,17.00
2022-10-21T04:53:15.065Z,17.00
2022-10-21T04:55:58.277Z,16.80
2022-10-21T04:58:46.142Z,16.70
2022-10-21T05:01:27.369Z,16.70
2022-10-21T05:04:15.082Z,16.70
2022-10-21T05:07:05.090Z,16.90
2022-10-21T05:09:46.468Z,17.00
2022-10-21T05:15:20.540Z,17.10
2022-10-21T05:18:08.164Z,17.00
2022-10-21T05:20:52.556Z,17.00
2022-10-21T05:23:42.108Z,17.20
2022-10-21T05:26:24.221Z,17.20
2022-10-21T05:29:12.195Z,17.40
2022-10-21T05:31:53.558Z,17.40
2022-10-21T05:34:41.186Z,17.40
2022-10-21T05:37:29.103Z,17.50
2022-10-21T05:40:12.302Z,17.40
2022-10-21T05:43:00.103Z,17.40
2022-10-21T05:45:41.242Z,17.20
2022-10-21T05:48:29.216Z,17.20
2022-10-21T05:51:11.358Z,17.20
2022-10-21T05:53:59.102Z,17.20
2022-10-21T05:56:42.482Z,17.40
2022-10-21T05:59:30.161Z,17.40
2022-10-21T06:02:11.370Z,17.30
2022-10-21T06:04:59.140Z,17.40
2022-10-21T06:07:47.133Z,17.20
2022-10-21T06:10:29.255Z,17.30
2022-10-21T06:13:18.208Z,17.10
2022-10-21T06:15:59.637Z,17.30
2022-10-21T06:18:47.142Z,17.20
2022-10-21T06:21:28.526Z,17.10
2022-10-21T06:24:16.124Z,17.20
2022-10-21T06:26:57.602Z,17.30
2022-10-21T06:29:46.157Z,17.10
2022-10-21T06:32:27.502Z,17.00
2022-10-21T06:35:15.186Z,17.30
2022-10-21T06:38:03.116Z,17.40
2022-10-21T06:40:44.291Z,17.60
2022-10-21T06:43:32.137Z,17.50
2022-10-21T06:46:16.296Z,17.60
2022-10-21T06:49:04.135Z,17.80
2022-10-21T06:51:45.269Z,18.00
2022-10-21T06:54:33.162Z,18.00
2022-10-21T06:57:14.275Z,18.20
2022-10-21T07:00:02.263Z,18.30
2022-10-21T07:02:52.147Z,18.10
2022-10-21T07:05:33.534Z,18.30
2022-10-21T07:08:22.593Z,18.10
2022-10-21T07:11:15.956Z,18.10
2022-10-21T07:14:03.175Z,17.80
2022-10-21T07:16:44.725Z,17.90
2022-10-21T07:19:34.242Z,18.00
2022-10-21T07:22:15.780Z,18.10
2022-10-21T07:25:03.192Z,18.40
2022-10-21T07:27:47.437Z,18.40
2022-10-21T07:30:36.180Z,18.50
2022-10-21T07:33:24.188Z,18.40
2022-10-21T07:36:11.354Z,18.50
2022-10-21T07:39:00.218Z,18.50
2022-10-21T07:41:42.437Z,18.40
2022-10-21T07:44:31.140Z,18.20
2022-10-21T07:47:12.389Z,18.20
2022-10-21T07:50:00.153Z,18.50
2022-10-21T07:52:51.913Z,18.40
2022-10-21T07:55:51.157Z,18.50
2022-10-21T07:58:39.245Z,18.50
2022-10-21T08:01:20.793Z,18.60
2022-10-21T08:04:09.140Z,18.50
2022-10-21T08:06:50.670Z,18.70
2022-10-21T08:09:40.157Z,18.80
2022-10-21T08:12:21.552Z,18.70
2022-10-21T08:15:09.152Z,18.70
2022-10-21T08:17:50.574Z,18.80
2022-10-21T08:20:38.247Z,18.80
2022-10-21T08:23:20.811Z,18.80
2022-10-21T08:26:10.239Z,18.90
2022-10-21T08:31:44.348Z,18.90
2022-10-21T08:34:32.222Z,19.00
2022-10-21T08:37:13.456Z,19.20
2022-10-21T08:40:01.175Z,19.10
2022-10-21T08:42:46.400Z,19.10
2022-10-21T08:45:36.226Z,19.00
2022-10-21T08:48:20.525Z,19.20
2022-10-21T08:51:09.171Z,19.30
2022-10-21T08:53:53.393Z,19.30
2022-10-21T08:56:41.158Z,19.30
2022-10-21T08:59:28.355Z,19.20
2022-10-21T09:02:30.219Z,19.30
2022-10-21T09:05:33.214Z,19.30
2022-10-21T09:08:19.483Z,19.20
2022-10-21T09:11:13.197Z,19.30
2022-10-21T09:14:06.135Z,19.30
2022-10-21T09:17:01.202Z,19.10
2022-10-21T09:19:47.557Z,19.20
2022-10-21T09:22:44.193Z,19.30
2022-10-21T09:25:28.733Z,19.30
2022-10-21T09:28:23.273Z,19.40
2022-10-21T09:31:05.374Z,19.40
2022-10-21T09:33:55.267Z,19.60
2022-10-21T09:36:38.236Z,19.60
2022-10-21T09:39:30.251Z,19.70
2022-10-21T09:42:23.076Z,19.50
2022-10-21T09:45:22.281Z,19.70
2022-10-21T09:48:12.186Z,19.80
2022-10-21T09:50:56.416Z,20.00
2022-10-21T09:53:53.660Z,19.90
2022-10-21T09:56:58.272Z,19.80
2022-10-21T09:59:57.302Z,20.00
2022-10-21T10:02:46.358Z,20.00
2022-10-21T10:05:45.194Z,20.10
2022-10-21T10:08:36.546Z,20.30
2022-10-21T10:11:28.206Z,20.20
2022-10-21T10:14:33.233Z,20.30
2022-10-21T10:17:22.367Z,20.30
2022-10-21T10:20:27.200Z,20.20
2022-10-21T10:23:09.948Z,20.30
2022-10-21T10:26:03.239Z,20.00
2022-10-21T10:28:49.248Z,20.00
2022-10-21T10:31:38.227Z,20.00
2022-10-21T10:34:21.255Z,20.10
2022-10-21T10:37:14.308Z,20.10
2022-10-21T10:40:04.212Z,20.10
2022-10-21T10:42:51.451Z,20.20
2022-10-21T10:45:39.201Z,20.20
2022-10-21T10:48:26.418Z,20.20
2022-10-21T10:51:14.237Z,20.30
2022-10-21T10:54:09.412Z,20.30
2022-10-21T10:56:53.277Z,20.20
2022-10-21T10:59:40.054Z,20.30
2022-10-21T11:02:33.311Z,20.30
2022-10-21T11:05:18.116Z,20.20
2022-10-21T11:08:07.263Z,20.20
2022-10-21T11:10:50.904Z,20.20
2022-10-21T11:13:42.261Z,20.30
2022-10-21T11:16:45.093Z,20.40
2022-10-21T11:19:41.333Z,20.60
2022-10-21T11:22:33.225Z,20.60
2022-10-21T11:25:26.430Z,20.70
2022-10-21T11:28:19.310Z,20.60
2022-10-21T11:31:10.440Z,20.60
2022-10-21T11:34:03.245Z,20.60
2022-10-21T11:36:49.426Z,20.60
2022-10-21T11:39:43.309Z,20.60
2022-10-21T11:42:28.478Z,20.70
2022-10-21T11:45:33.276Z,20.90
2022-10-21T11:48:19.482Z,21.10
2022-10-21T11:51:14.284Z,21.30
2022-10-21T11:54:10.422Z,21.30
2022-10-21T11:57:02.252Z,21.40
2022-10-21T11:59:55.387Z,21.30
2022-10-21T12:02:52.376Z,21.50
2022-10-21T12:05:44.253Z,21.30
2022-10-21T12:08:28.688Z,21.30
2022-10-21T12:11:19.254Z,21.30
2022-10-21T12:14:11.402Z,21.20
2022-10-21T12:16:54.252Z,21.00
2022-10-21T12:19:36.470Z,21.20
2022-10-21T12:22:25.327Z,21.20
2022-10-21T12:25:10.721Z,21.10
2022-10-21T12:28:01.264Z,21.10
2022-10-21T12:30:45.814Z,21.30
2022-10-21T12:33:39.312Z,21.40
2022-10-21T12:36:38.250Z,21.40
2022-10-21T12:39:31.277Z,21.50
2022-10-21T12:42:15.021Z,21.40
2022-10-21T12:45:03.261Z,21.60
2022-10-21T12:47:45.535Z,21.60
2022-10-21T12:50:37.341Z,21.50
2022-10-21T12:53:38.345Z,21.40
2022-10-21T12:56:34.243Z,21.40
2022-10-21T12:59:39.258Z,21.50
2022-10-21T13:02:25.994Z,21.60
2022-10-21T13:05:13.328Z,21.60
2022-10-21T13:08:09.497Z,21.50
2022-10-21T13:11:17.278Z,21.60
2022-10-21T13:14:17.117Z,21.70
2022-10-21T13:17:07.258Z,21.70
2022-10-21T13:19:48.802Z,21.80
2022-10-21T13:22:37.680Z,21.80
2022-10-21T13:25:21.778Z,21.80
2022-10-21T13:28:17.283Z,21.80
2022-10-21T13:31:00.025Z,21.90
2022-10-21T13:33:50.271Z,21.90
2022-10-21T13:36:39.849Z,22.10
2022-10-21T13:39:37.303Z,22.00
2022-10-21T13:42:20.674Z,22.00
2022-10-21T13:45:12.293Z,22.00
2022-10-21T13:48:00.996Z,21.90
2022-10-21T13:50:52.309Z,22.00
2022-10-21T13:53:47.293Z,22.00
2022-10-21T13:56:37.477Z,22.00
2022-10-21T13:59:28.363Z,22.00
2022-10-21T14:02:23.599Z,21.90
2022-10-21T14:05:11.296Z,21.90
2022-10-21T14:07:54.436Z,21.80
2022-10-21T14:10:43.321Z,21.70
2022-10-21T14:13:26.279Z,21.80
2022-10-21T14:16:15.389Z,21.90
2022-10-21T14:18:56.980Z,22.00
2022-10-21T14:21:45.290Z,22.10
2022-10-21T14:24:29.604Z,22.30
2022-10-21T14:27:18.402Z,22.20
2022-10-21T14:30:09.403Z,22.10
2022-10-21T14:32:50.518Z,22.10
2022-10-21T14:35:38.377Z,22.10
2022-10-21T14:38:33.452Z,22.10
2022-10-21T14:41:24.313Z,22.20
2022-10-21T14:44:12.483Z,22.20
2022-10-21T14:47:01.373Z,22.10
2022-10-21T14:49:49.550Z,22.20
2022-10-21T14:52:41.573Z,22.30
2022-10-21T14:55:31.584Z,22.20
2022-10-21T14:58:16.379Z,21.90
2022-10-21T15:00:58.687Z,21.90
2022-10-21T15:03:54.342Z,22.00
2022-10-21T15:06:42.309Z,22.20
2022-10-21T15:09:27.547Z,22.20
2022-10-21T15:12:25.330Z,22.10
2022-10-21T15:15:10.573Z,21.90
2022-10-21T15:18:07.252Z,21.80
2022-10-21T15:20:56.486Z,21.80
2022-10-21T15:23:45.326Z,21.80
2022-10-21T15:26:28.652Z,21.70
2022-10-21T15:29:20.342Z,21.70
2022-10-21T15:32:03.561Z,21.70
2022-10-21T15:34:51.365Z,21.70
2022-10-21T15:37:39.510Z,21.60
2022-10-21T15:40:21.690Z,21.70
2022-10-21T15:43:10.393Z,21.50
2022-10-21T15:45:51.753Z,21.50
2022-10-21T15:48:40.418Z,21.60
2022-10-21T15:51:21.786Z,21.50
2022-10-21T15:54:09.435Z,21.40
2022-10-21T15:56:51.810Z,21.50
2022-10-21T15:59:40.358Z,21.50
2022-10-21T16:02:21.849Z,21.40
2022-10-21T16:05:11.323Z,21.20
2022-10-21T16:07:52.820Z,21.20
2022-10-21T16:10:41.386Z,21.30
2022-10-21T16:13:29.346Z,21.20
2022-10-21T16:16:10.564Z,21.10
2022-10-21T16:18:59.342Z,21.00
2022-10-21T16:21:42.572Z,21.00
2022-10-21T16:24:30.377Z,21.10
2022-10-21T16:27:31.060Z,21.00
2022-10-21T16:30:25.471Z,20.90
2022-10-21T16:33:06.580Z,21.00
2022-10-21T16:35:55.351Z,20.70
2022-10-21T16:38:44.462Z,20.50
2022-10-21T16:41:28.719Z,20.60
2022-10-21T16:44:16.354Z,20.60
2022-10-21T16:46:57.791Z,20.30
2022-10-21T16:49:46.367Z,20.60
2022-10-21T16:52:28.128Z,20.70
2022-10-21T16:55:17.369Z,20.60
2022-10-21T16:57:58.809Z,20.70
2022-10-21T17:00:46.434Z,20.50
2022-10-21T17:03:27.718Z,20.50
2022-10-21T17:06:15.467Z,20.50
2022-10-21T17:08:57.060Z,20.60
2022-10-21T17:11:47.428Z,20.60
2022-10-21T17:14:36.603Z,20.60
2022-10-21T17:17:21.013Z,20.50
2022-10-21T17:20:08.406Z,20.40
2022-10-21T17:22:49.510Z,20.20
2022-10-21T17:25:37.470Z,20.10
2022-10-21T17:28:20.598Z,20.10
2022-10-21T17:31:08.416Z,20.00
2022-10-21T17:33:49.625Z,20.10
2022-10-21T17:36:37.360Z,20.00
2022-10-21T17:39:18.553Z,20.00
2022-10-21T17:42:06.382Z,19.60
2022-10-21T17:44:57.247Z,19.70
2022-10-21T17:47:38.782Z,19.70
2022-10-21T17:50:30.403Z,19.90
2022-10-21T17:53:11.817Z,19.90
2022-10-21T17:55:59.421Z,19.70
2022-10-21T17:58:40.766Z,19.70
2022-10-21T18:01:30.411Z,19.80
2022-10-21T18:04:12.097Z,19.60
2022-10-21T18:06:59.396Z,19.70
2022-10-21T18:09:40.833Z,19.60
2022-10-21T18:12:28.394Z,19.70
2022-10-21T18:15:16.511Z,19.60
2022-10-21T18:17:59.671Z,19.60
2022-10-21T18:20:47.468Z,19.50
2022-10-21T18:23:28.685Z,19.40
2022-10-21T18:26:18.406Z,19.20
2022-10-21T18:29:00.597Z,19.60
2022-10-21T18:31:48.467Z,19.70
2022-10-21T18:34:31.554Z,19.70
2022-10-21T18:37:19.467Z,19.70
2022-10-21T18:40:00.636Z,19.50
2022-10-21T18:42:48.520Z,19.40
2022-10-21T18:45:36.441Z,19.40
2022-10-21T18:48:17.944Z,19.50
2022-10-21T18:51:06.575Z,19.50
2022-10-21T18:54:01.464Z,19.40
2022-10-21T18:56:51.425Z,19.30
2022-10-21T18:59:32.567Z,19.30
2022-10-21T19:02:24.524Z,19.40
2022-10-21T19:05:05.666Z,19.40
2022-10-21T19:07:54.445Z,19.30
2022-10-21T19:10:42.470Z,19.30
2022-10-21T19:13:23.975Z,19.40
2022-10-21T19:16:11.434Z,19.30
2022-10-21T19:18:53.429Z,19.30
2022-10-21T19:21:41.457Z,19.30
2022-10-21T19:24:24.438Z,19.20
2022-10-21T19:27:13.441Z,19.20
2022-10-21T19:29:54.864Z,19.10
2022-10-21T19:32:42.568Z,19.30
2022-10-21T19:35:23.782Z,19.00
2022-10-21T19:38:20.890Z,19.10
2022-10-21T19:41:24.438Z,19.00
2022-10-21T19:44:05.624Z,19.20
2022-10-21T19:46:53.513Z,19.30
2022-10-21T19:49:34.651Z,19.20
2022-10-21T19:52:22.410Z,19.00
2022-10-21T19:55:03.590Z,19.00
2022-10-21T19:57:52.525Z,19.10
2022-10-21T20:00:33.652Z,18.90
2022-10-21T20:03:21.523Z,19.00
2022-10-21T20:06:09.444Z,19.00
2022-10-21T20:08:50.953Z,18.90
2022-10-21T20:11:38.424Z,19.00
2022-10-21T20:14:21.332Z,18.90
2022-10-21T20:17:09.514Z,18.70
2022-10-21T20:19:51.303Z,18.70
2022-10-21T20:22:39.614Z,18.90
2022-10-21T20:25:20.834Z,18.80
2022-10-21T20:28:08.439Z,18.90
2022-10-21T20:30:58.005Z,18.80
2022-10-21T20:33:46.463Z,18.90
2022-10-21T20:36:35.438Z,18.80
2022-10-21T20:39:17.664Z,18.90
2022-10-21T20:42:05.519Z,18.70
2022-10-21T20:44:46.951Z,18.80
2022-10-21T20:47:35.465Z,18.60
2022-10-21T20:50:17.744Z,18.60
2022-10-21T20:53:05.556Z,18.50
2022-10-21T20:56:00.701Z,18.70
2022-10-21T20:58:42.460Z,18.70
2022-10-21T21:01:25.583Z,18.60
2022-10-21T21:04:15.518Z,18.80
2022-10-21T21:07:03.518Z,18.90
2022-10-21T21:10:01.750Z,18.80
2022-10-21T21:12:50.518Z,18.50
2022-10-21T21:15:31.714Z,18.60
2022-10-21T21:18:20.477Z,18.30
2022-10-21T21:21:08.743Z,18.20
2022-10-21T21:23:56.541Z,18.20
2022-10-21T21:26:38.711Z,18.10
2022-10-21T21:29:26.450Z,18.10
2022-10-21T21:32:07.725Z,18.10
2022-10-21T21:35:03.579Z,18.30
2022-10-21T21:37:55.446Z,18.10
2022-10-21T21:40:37.120Z,18.30
2022-10-21T21:43:24.559Z,18.20
2022-10-21T21:46:06.264Z,18.50
2022-10-21T21:48:55.340Z,18.30
2022-10-21T21:51:38.834Z,18.30
2022-10-21T21:54:28.482Z,18.10
2022-10-21T21:57:26.766Z,18.20
2022-10-21T22:00:15.468Z,18.10
2022-10-21T22:03:03.454Z,18.20
2022-10-21T22:05:44.609Z,18.10
2022-10-21T22:08:32.642Z,18.00
2022-10-21T22:11:17.744Z,17.90
2022-10-21T22:14:05.450Z,17.70
2022-10-21T22:16:46.704Z,17.50
2022-10-21T22:19:34.565Z,17.40
2022-10-21T22:22:15.703Z,17.70
2022-10-21T22:25:03.488Z,17.80
2022-10-21T22:27:46.759Z,17.80
2022-10-21T22:30:34.489Z,17.90
2022-10-21T22:33:22.488Z,17.70
2022-10-21T22:36:04.419Z,17.80
2022-10-21T22:38:52.488Z,17.70
2022-10-21T22:41:33.844Z,17.90
2022-10-21T22:44:23.485Z,18.00
2022-10-21T22:47:04.919Z,17.90
2022-10-21T22:49:55.529Z,17.70
2022-10-21T22:52:37.286Z,17.60
2022-10-21T22:55:25.488Z,17.60
2022-10-21T22:58:07.469Z,17.50
2022-10-21T23:00:57.523Z,17.30
2022-10-21T23:03:45.501Z,17.20
2022-10-21T23:06:26.641Z,17.20
2022-10-21T23:09:14.658Z,17.30
2022-10-21T23:11:55.759Z,17.10
2022-10-21T23:14:43.510Z,17.00
2022-10-21T23:17:26.685Z,17.00
2022-10-21T23:20:15.569Z,17.10
2022-10-21T23:22:56.708Z,17.10
2022-10-21T23:25:44.509Z,17.20
2022-10-21T23:28:25.796Z,17.30
2022-10-21T23:31:13.530Z,17.30
2022-10-21T23:34:03.503Z,17.40
2022-10-21T23:36:44.918Z,17.40
2022-10-21T23:39:32.559Z,17.30
2022-10-21T23:42:13.949Z,17.10
2022-10-21T23:45:01.587Z,17.10
2022-10-21T23:47:43.362Z,17.10
2022-10-21T23:50:33.511Z,16.90
2022-10-21T23:53:14.961Z,16.70
2022-10-21T23:56:02.533Z,16.80
2022-10-21T23:58:43.864Z,17.00
